This is the latest recevied weather packets stored in our database for station/object SP9WPN-12. If no packets are shown the sender has not sent any weather packets the latest 1 day(s).
| Time | Temp. | Humidity | Pressure | Rain* | Wind** | Luminosity | Snow |
|---|---|---|---|---|---|---|---|
| 1778061160 | 23.89° C | 46% | 1007.1 hPa | - | - | - | - |
| 1778060563 | 23.33° C | 47% | 1007 hPa | - | - | - | - |
| 1778059965 | 25° C | 44% | 1006.7 hPa | - | - | - | - |
| 1778057574 | 23.89° C | 47% | 1006.6 hPa | - | - | - | - |
| 1778056976 | 22.78° C | 50% | 1006.8 hPa | - | - | - | - |
| 1778056378 | 22.78° C | 50% | 1006.8 hPa | - | - | - | - |
| 1778055781 | 23.33° C | 48% | 1006.7 hPa | - | - | - | - |
| 1778055183 | 22.78° C | 50% | 1006.8 hPa | - | - | - | - |
| 1778052194 | 21.11° C | 54% | 1006.9 hPa | - | - | - | - |
| 1778051595 | 21.11° C | 56% | 1006.9 hPa | - | - | - | - |
| 1778050399 | 19.44° C | 58% | 1007.2 hPa | - | - | - | - |
| 1778049801 | 19.44° C | 58% | 1007.2 hPa | - | - | - | - |
| 1778049203 | 18.33° C | 59% | 1007.1 hPa | - | - | - | - |
| 1778048606 | 18.33° C | 60% | 1007.1 hPa | - | - | - | - |
| 1778048008 | 17.78° C | 62% | 1007.1 hPa | - | - | - | - |
| 1778047410 | 17.78° C | 60% | 1007 hPa | - | - | - | - |
| 1778045616 | 17.78° C | 60% | 1006.8 hPa | - | - | - | - |
| 1778045018 | 17.22° C | 61% | 1006.9 hPa | - | - | - | - |
| 1778044420 | 16.67° C | 62% | 1006.9 hPa | - | - | - | - |
| 1778043822 | 16.67° C | 63% | 1006.9 hPa | - | - | - | - |
| 1778043225 | 16.11° C | 64% | 1007 hPa | - | - | - | - |
| 1778042627 | 16.11° C | 64% | 1007 hPa | - | - | - | - |
| 1778041432 | 13.89° C | 71% | 1007.2 hPa | - | - | - | - |
| 1778040834 | 13.33° C | 73% | 1007.3 hPa | - | - | - | - |
| 1778040237 | 13.33° C | 71% | 1007.1 hPa | - | - | - | - |
* Rain since midnight (hover to see other rain measurements)
** Current wind speed in m/s (hover to see current wind gust speed)